sensor_id;sensor_type;location;lat;lon;timestamp;pressure;altitude;pressure_sealevel;temperature;humidity
50302;BME280;36550;50.472;19.744;2023-11-21T00:01:37;97163.06;;;8.20;95.46
50302;BME280;36550;50.472;19.744;2023-11-21T00:04:21;97166.05;;;8.20;95.53
50302;BME280;36550;50.472;19.744;2023-11-21T00:07:06;97168.61;;;8.20;95.63
50302;BME280;36550;50.472;19.744;2023-11-21T00:09:50;97170.83;;;8.21;95.75
50302;BME280;36550;50.472;19.744;2023-11-21T00:12:34;97168.95;;;8.22;95.70
50302;BME280;36550;50.472;19.744;2023-11-21T00:15:20;97176.21;;;8.22;95.64
50302;BME280;36550;50.472;19.744;2023-11-21T00:18:06;97176.70;;;8.19;95.55
50302;BME280;36550;50.472;19.744;2023-11-21T00:20:50;97178.39;;;8.17;95.53
50302;BME280;36550;50.472;19.744;2023-11-21T00:23:35;97178.80;;;8.15;95.56
50302;BME280;36550;50.472;19.744;2023-11-21T00:26:19;97179.15;;;8.12;95.46
50302;BME280;36550;50.472;19.744;2023-11-21T00:29:03;97184.02;;;8.08;95.41
50302;BME280;36550;50.472;19.744;2023-11-21T00:31:47;97186.16;;;8.08;95.47
50302;BME280;36550;50.472;19.744;2023-11-21T00:34:32;97186.10;;;8.08;95.37
50302;BME280;36550;50.472;19.744;2023-11-21T00:37:16;97189.00;;;8.06;95.43
50302;BME280;36550;50.472;19.744;2023-11-21T00:40:01;97190.70;;;8.05;95.25
50302;BME280;36550;50.472;19.744;2023-11-21T00:42:51;97192.48;;;8.05;95.47
50302;BME280;36550;50.472;19.744;2023-11-21T00:45:36;97190.30;;;8.05;95.39
50302;BME280;36550;50.472;19.744;2023-11-21T00:48:20;97196.55;;;8.04;95.28
50302;BME280;36550;50.472;19.744;2023-11-21T00:51:05;97195.38;;;8.05;95.43
50302;BME280;36550;50.472;19.744;2023-11-21T00:53:50;97193.71;;;8.03;95.29
50302;BME280;36550;50.472;19.744;2023-11-21T00:56:34;97190.19;;;8.02;95.27
50302;BME280;36550;50.472;19.744;2023-11-21T00:59:18;97191.35;;;8.03;95.46
50302;BME280;36550;50.472;19.744;2023-11-21T01:02:03;97184.14;;;8.02;95.56
50302;BME280;36550;50.472;19.744;2023-11-21T01:04:49;97185.90;;;8.04;95.63
50302;BME280;36550;50.472;19.744;2023-11-21T01:07:33;97182.98;;;8.05;95.70
50302;BME280;36550;50.472;19.744;2023-11-21T01:10:18;97181.37;;;8.06;95.63
50302;BME280;36550;50.472;19.744;2023-11-21T01:13:03;97183.05;;;8.06;95.54
50302;BME280;36550;50.472;19.744;2023-11-21T01:15:51;97180.62;;;8.05;95.54
50302;BME280;36550;50.472;19.744;2023-11-21T01:18:36;97179.30;;;8.04;95.39
50302;BME280;36550;50.472;19.744;2023-11-21T01:21:20;97175.73;;;8.04;95.54
50302;BME280;36550;50.472;19.744;2023-11-21T01:24:05;97175.22;;;8.04;95.77
50302;BME280;36550;50.472;19.744;2023-11-21T01:26:51;97170.92;;;8.07;95.87
50302;BME280;36550;50.472;19.744;2023-11-21T01:29:35;97177.41;;;8.06;95.79
50302;BME280;36550;50.472;19.744;2023-11-21T01:32:20;97177.33;;;8.05;95.86
50302;BME280;36550;50.472;19.744;2023-11-21T01:35:05;97178.23;;;8.03;95.72
50302;BME280;36550;50.472;19.744;2023-11-21T01:37:50;97178.86;;;8.03;95.74
50302;BME280;36550;50.472;19.744;2023-11-21T01:40:35;97183.17;;;8.01;95.71
50302;BME280;36550;50.472;19.744;2023-11-21T01:43:20;97180.77;;;8.01;95.58
50302;BME280;36550;50.472;19.744;2023-11-21T01:46:05;97181.64;;;8.00;95.50
50302;BME280;36550;50.472;19.744;2023-11-21T01:48:50;97182.26;;;8.00;95.52
50302;BME280;36550;50.472;19.744;2023-11-21T01:51:36;97184.63;;;8.00;95.63
50302;BME280;36550;50.472;19.744;2023-11-21T01:54:21;97186.95;;;8.01;95.66
50302;BME280;36550;50.472;19.744;2023-11-21T01:57:05;97184.08;;;8.02;95.67
50302;BME280;36550;50.472;19.744;2023-11-21T01:59:52;97182.98;;;8.00;95.86
50302;BME280;36550;50.472;19.744;2023-11-21T02:02:38;97180.69;;;8.00;95.70
50302;BME280;36550;50.472;19.744;2023-11-21T02:05:22;97181.23;;;8.01;95.82
50302;BME280;36550;50.472;19.744;2023-11-21T02:08:06;97183.09;;;8.02;95.87
50302;BME280;36550;50.472;19.744;2023-11-21T02:10:50;97181.64;;;8.04;95.81
50302;BME280;36550;50.472;19.744;2023-11-21T02:13:34;97187.19;;;8.04;95.84
50302;BME280;36550;50.472;19.744;2023-11-21T02:16:19;97187.14;;;8.04;95.89
50302;BME280;36550;50.472;19.744;2023-11-21T02:19:07;97188.11;;;8.06;95.83
50302;BME280;36550;50.472;19.744;2023-11-21T02:21:53;97186.20;;;8.07;95.90
50302;BME280;36550;50.472;19.744;2023-11-21T02:24:37;97182.55;;;8.08;95.86
50302;BME280;36550;50.472;19.744;2023-11-21T02:27:26;97179.59;;;8.09;95.82
50302;BME280;36550;50.472;19.744;2023-11-21T02:30:12;97180.83;;;8.08;95.77
50302;BME280;36550;50.472;19.744;2023-11-21T02:32:57;97185.25;;;8.07;95.80
50302;BME280;36550;50.472;19.744;2023-11-21T02:35:42;97184.58;;;8.07;95.79
50302;BME280;36550;50.472;19.744;2023-11-21T02:38:27;97189.85;;;8.07;95.64
50302;BME280;36550;50.472;19.744;2023-11-21T02:41:11;97187.55;;;8.07;95.59
50302;BME280;36550;50.472;19.744;2023-11-21T02:43:55;97188.11;;;8.07;95.65
50302;BME280;36550;50.472;19.744;2023-11-21T02:46:40;97192.52;;;8.07;95.79
50302;BME280;36550;50.472;19.744;2023-11-21T02:49:24;97192.56;;;8.06;95.66
50302;BME280;36550;50.472;19.744;2023-11-21T02:52:12;97196.38;;;8.07;95.73
50302;BME280;36550;50.472;19.744;2023-11-21T02:54:56;97194.11;;;8.05;95.70
50302;BME280;36550;50.472;19.744;2023-11-21T02:57:40;97194.57;;;8.05;95.61
50302;BME280;36550;50.472;19.744;2023-11-21T03:00:24;97198.48;;;8.04;95.62
50302;BME280;36550;50.472;19.744;2023-11-21T03:03:10;97203.30;;;8.05;95.68
50302;BME280;36550;50.472;19.744;2023-11-21T03:05:54;97207.38;;;8.05;95.71
50302;BME280;36550;50.472;19.744;2023-11-21T03:08:39;97214.25;;;8.06;95.84
50302;BME280;36550;50.472;19.744;2023-11-21T03:11:23;97216.39;;;8.06;95.69
50302;BME280;36550;50.472;19.744;2023-11-21T03:14:07;97217.34;;;8.04;95.73
50302;BME280;36550;50.472;19.744;2023-11-21T03:16:52;97215.65;;;8.03;95.70
50302;BME280;36550;50.472;19.744;2023-11-21T03:19:36;97219.08;;;8.02;95.71
50302;BME280;36550;50.472;19.744;2023-11-21T03:22:21;97218.36;;;8.02;95.66
50302;BME280;36550;50.472;19.744;2023-11-21T03:25:06;97220.77;;;8.03;95.61
50302;BME280;36550;50.472;19.744;2023-11-21T03:27:54;97224.04;;;8.04;95.55
50302;BME280;36550;50.472;19.744;2023-11-21T03:30:38;97227.00;;;8.06;95.64
50302;BME280;36550;50.472;19.744;2023-11-21T03:33:22;97230.58;;;8.11;95.62
50302;BME280;36550;50.472;19.744;2023-11-21T03:36:07;97228.05;;;8.14;95.64
50302;BME280;36550;50.472;19.744;2023-11-21T03:38:52;97225.95;;;8.14;95.50
50302;BME280;36550;50.472;19.744;2023-11-21T03:41:36;97232.27;;;8.12;95.54
50302;BME280;36550;50.472;19.744;2023-11-21T03:44:20;97230.23;;;8.12;95.57
50302;BME280;36550;50.472;19.744;2023-11-21T03:47:06;97231.73;;;8.11;95.43
50302;BME280;36550;50.472;19.744;2023-11-21T03:49:50;97234.59;;;8.11;95.46
50302;BME280;36550;50.472;19.744;2023-11-21T03:52:34;97229.06;;;8.11;95.55
50302;BME280;36550;50.472;19.744;2023-11-21T03:55:18;97231.75;;;8.13;95.55
50302;BME280;36550;50.472;19.744;2023-11-21T03:58:03;97231.47;;;8.12;95.47
50302;BME280;36550;50.472;19.744;2023-11-21T04:00:47;97232.17;;;8.09;95.43
50302;BME280;36550;50.472;19.744;2023-11-21T04:03:35;97233.78;;;8.09;95.42
50302;BME280;36550;50.472;19.744;2023-11-21T04:06:19;97234.14;;;8.09;95.31
50302;BME280;36550;50.472;19.744;2023-11-21T04:09:03;97239.27;;;8.08;95.25
50302;BME280;36550;50.472;19.744;2023-11-21T04:11:49;97238.77;;;8.07;95.45
50302;BME280;36550;50.472;19.744;2023-11-21T04:14:33;97240.73;;;8.08;95.33
50302;BME280;36550;50.472;19.744;2023-11-21T04:17:18;97241.86;;;8.08;95.39
50302;BME280;36550;50.472;19.744;2023-11-21T04:20:05;97240.48;;;8.07;95.35
50302;BME280;36550;50.472;19.744;2023-11-21T04:22:52;97238.34;;;8.06;95.32
50302;BME280;36550;50.472;19.744;2023-11-21T04:25:38;97243.73;;;8.05;95.52
50302;BME280;36550;50.472;19.744;2023-11-21T04:28:23;97243.98;;;8.04;95.52
50302;BME280;36550;50.472;19.744;2023-11-21T04:31:08;97241.60;;;8.01;95.48
50302;BME280;36550;50.472;19.744;2023-11-21T04:33:53;97244.35;;;8.01;95.44
50302;BME280;36550;50.472;19.744;2023-11-21T04:36:37;97247.44;;;8.01;95.43
50302;BME280;36550;50.472;19.744;2023-11-21T04:39:21;97251.08;;;8.00;95.39
50302;BME280;36550;50.472;19.744;2023-11-21T04:42:05;97250.60;;;7.98;95.40
50302;BME280;36550;50.472;19.744;2023-11-21T04:44:49;97255.36;;;7.99;95.52
50302;BME280;36550;50.472;19.744;2023-11-21T04:47:34;97259.49;;;7.99;95.48
50302;BME280;36550;50.472;19.744;2023-11-21T04:50:18;97256.64;;;8.01;95.52
50302;BME280;36550;50.472;19.744;2023-11-21T04:53:02;97260.30;;;8.01;95.50
50302;BME280;36550;50.472;19.744;2023-11-21T04:55:47;97262.71;;;8.01;95.51
50302;BME280;36550;50.472;19.744;2023-11-21T04:58:32;97264.07;;;8.01;95.40
50302;BME280;36550;50.472;19.744;2023-11-21T05:01:17;97263.73;;;8.03;95.53
50302;BME280;36550;50.472;19.744;2023-11-21T05:04:02;97265.02;;;8.01;95.45
50302;BME280;36550;50.472;19.744;2023-11-21T05:06:46;97267.86;;;8.00;95.51
50302;BME280;36550;50.472;19.744;2023-11-21T05:09:30;97269.58;;;8.00;95.59
50302;BME280;36550;50.472;19.744;2023-11-21T05:12:16;97272.77;;;7.99;95.46
50302;BME280;36550;50.472;19.744;2023-11-21T05:15:00;97274.66;;;7.97;95.26
50302;BME280;36550;50.472;19.744;2023-11-21T05:17:45;97279.66;;;7.96;95.25
50302;BME280;36550;50.472;19.744;2023-11-21T05:20:29;97280.73;;;7.97;95.35
50302;BME280;36550;50.472;19.744;2023-11-21T05:23:14;97286.17;;;7.98;95.39
50302;BME280;36550;50.472;19.744;2023-11-21T05:25:58;97283.27;;;7.99;95.39
50302;BME280;36550;50.472;19.744;2023-11-21T05:28:42;97289.80;;;7.99;95.50
50302;BME280;36550;50.472;19.744;2023-11-21T05:31:26;97290.83;;;7.99;95.50
50302;BME280;36550;50.472;19.744;2023-11-21T05:34:10;97290.83;;;7.99;95.38
50302;BME280;36550;50.472;19.744;2023-11-21T05:36:54;97296.33;;;7.99;95.29
50302;BME280;36550;50.472;19.744;2023-11-21T05:39:38;97297.85;;;7.99;95.14
50302;BME280;36550;50.472;19.744;2023-11-21T05:42:23;97298.80;;;7.99;94.93
50302;BME280;36550;50.472;19.744;2023-11-21T05:45:08;97302.54;;;7.98;94.84
50302;BME280;36550;50.472;19.744;2023-11-21T05:47:55;97303.23;;;7.99;95.01
50302;BME280;36550;50.472;19.744;2023-11-21T05:50:39;97302.87;;;7.99;94.91
50302;BME280;36550;50.472;19.744;2023-11-21T05:53:24;97311.81;;;8.00;95.13
50302;BME280;36550;50.472;19.744;2023-11-21T05:56:08;97312.38;;;7.99;95.00
50302;BME280;36550;50.472;19.744;2023-11-21T05:58:53;97310.97;;;7.99;95.05
50302;BME280;36550;50.472;19.744;2023-11-21T06:01:37;97315.33;;;7.98;95.21
50302;BME280;36550;50.472;19.744;2023-11-21T06:04:22;97319.91;;;7.94;95.19
50302;BME280;36550;50.472;19.744;2023-11-21T06:07:08;97323.35;;;7.91;95.22
50302;BME280;36550;50.472;19.744;2023-11-21T06:09:53;97325.49;;;7.88;95.17
50302;BME280;36550;50.472;19.744;2023-11-21T06:12:38;97328.56;;;7.87;95.06
50302;BME280;36550;50.472;19.744;2023-11-21T06:15:24;97331.54;;;7.86;95.08
50302;BME280;36550;50.472;19.744;2023-11-21T06:18:08;97336.45;;;7.87;95.02
50302;BME280;36550;50.472;19.744;2023-11-21T06:20:54;97341.02;;;7.88;95.19
50302;BME280;36550;50.472;19.744;2023-11-21T06:23:38;97340.84;;;7.89;95.24
50302;BME280;36550;50.472;19.744;2023-11-21T06:26:23;97341.31;;;7.89;95.14
50302;BME280;36550;50.472;19.744;2023-11-21T06:29:08;97346.86;;;7.89;95.12
50302;BME280;36550;50.472;19.744;2023-11-21T06:31:52;97347.16;;;7.90;95.09
50302;BME280;36550;50.472;19.744;2023-11-21T06:34:40;97351.90;;;7.92;95.19
50302;BME280;36550;50.472;19.744;2023-11-21T06:37:24;97355.65;;;7.94;95.21
50302;BME280;36550;50.472;19.744;2023-11-21T06:40:08;97359.21;;;7.95;95.28
50302;BME280;36550;50.472;19.744;2023-11-21T06:42:54;97361.09;;;7.95;95.34
50302;BME280;36550;50.472;19.744;2023-11-21T06:45:38;97366.16;;;7.91;95.22
50302;BME280;36550;50.472;19.744;2023-11-21T06:48:22;97366.56;;;7.91;95.27
50302;BME280;36550;50.472;19.744;2023-11-21T06:51:07;97368.81;;;7.90;95.22
50302;BME280;36550;50.472;19.744;2023-11-21T06:53:51;97372.00;;;7.91;95.19
50302;BME280;36550;50.472;19.744;2023-11-21T06:56:36;97376.10;;;7.92;95.12
50302;BME280;36550;50.472;19.744;2023-11-21T06:59:20;97376.18;;;7.94;95.13
50302;BME280;36550;50.472;19.744;2023-11-21T07:02:04;97380.43;;;7.97;95.22
50302;BME280;36550;50.472;19.744;2023-11-21T07:04:52;97378.17;;;7.99;95.16
50302;BME280;36550;50.472;19.744;2023-11-21T07:07:36;97378.61;;;8.01;95.13
50302;BME280;36550;50.472;19.744;2023-11-21T07:10:21;97379.73;;;8.02;95.00
50302;BME280;36550;50.472;19.744;2023-11-21T07:13:05;97377.32;;;8.01;94.87
50302;BME280;36550;50.472;19.744;2023-11-21T07:15:51;97382.11;;;8.03;94.94
50302;BME280;36550;50.472;19.744;2023-11-21T07:18:36;97384.26;;;8.04;94.78
50302;BME280;36550;50.472;19.744;2023-11-21T07:21:20;97389.70;;;8.05;94.84
50302;BME280;36550;50.472;19.744;2023-11-21T07:24:06;97392.20;;;8.06;94.84
50302;BME280;36550;50.472;19.744;2023-11-21T07:26:50;97391.96;;;8.10;94.93
50302;BME280;36550;50.472;19.744;2023-11-21T07:29:34;97391.00;;;8.12;94.89
50302;BME280;36550;50.472;19.744;2023-11-21T07:32:19;97389.25;;;8.14;94.90
50302;BME280;36550;50.472;19.744;2023-11-21T07:35:03;97391.61;;;8.14;94.70
50302;BME280;36550;50.472;19.744;2023-11-21T07:37:47;97395.66;;;8.16;94.63
50302;BME280;36550;50.472;19.744;2023-11-21T07:40:32;97397.98;;;8.17;94.64
50302;BME280;36550;50.472;19.744;2023-11-21T07:43:16;97401.52;;;8.19;94.78
50302;BME280;36550;50.472;19.744;2023-11-21T07:46:04;97402.65;;;8.20;94.70
50302;BME280;36550;50.472;19.744;2023-11-21T07:48:49;97405.66;;;8.21;94.61
50302;BME280;36550;50.472;19.744;2023-11-21T07:51:33;97405.46;;;8.22;94.45
50302;BME280;36550;50.472;19.744;2023-11-21T07:54:17;97404.91;;;8.27;94.61
50302;BME280;36550;50.472;19.744;2023-11-21T07:57:02;97410.27;;;8.32;94.62
50302;BME280;36550;50.472;19.744;2023-11-21T07:59:47;97410.79;;;8.34;94.44
50302;BME280;36550;50.472;19.744;2023-11-21T08:02:32;97415.73;;;8.33;94.47
50302;BME280;36550;50.472;19.744;2023-11-21T08:05:16;97419.73;;;8.34;94.49
50302;BME280;36550;50.472;19.744;2023-11-21T08:08:00;97424.08;;;8.38;94.58
50302;BME280;36550;50.472;19.744;2023-11-21T08:10:45;97424.98;;;8.41;94.70
50302;BME280;36550;50.472;19.744;2023-11-21T08:13:40;97428.30;;;8.41;94.62
50302;BME280;36550;50.472;19.744;2023-11-21T08:16:24;97428.55;;;8.43;94.63
50302;BME280;36550;50.472;19.744;2023-11-21T08:19:08;97431.54;;;8.44;94.80
50302;BME280;36550;50.472;19.744;2023-11-21T08:21:53;97435.17;;;8.45;94.51
50302;BME280;36550;50.472;19.744;2023-11-21T08:24:38;97438.95;;;8.45;94.40
50302;BME280;36550;50.472;19.744;2023-11-21T08:27:22;97438.22;;;8.46;94.37
50302;BME280;36550;50.472;19.744;2023-11-21T08:30:06;97441.29;;;8.47;94.44
50302;BME280;36550;50.472;19.744;2023-11-21T08:32:51;97438.98;;;8.51;94.40
50302;BME280;36550;50.472;19.744;2023-11-21T08:35:38;97439.63;;;8.55;94.36
50302;BME280;36550;50.472;19.744;2023-11-21T08:38:22;97438.36;;;8.60;94.28
50302;BME280;36550;50.472;19.744;2023-11-21T08:41:07;97442.19;;;8.66;94.33
50302;BME280;36550;50.472;19.744;2023-11-21T08:43:51;97438.71;;;8.75;94.51
50302;BME280;36550;50.472;19.744;2023-11-21T08:46:37;97438.89;;;8.85;94.67
50302;BME280;36550;50.472;19.744;2023-11-21T08:49:23;97437.67;;;8.97;94.45
50302;BME280;36550;50.472;19.744;2023-11-21T08:52:07;97437.88;;;9.07;94.39
50302;BME280;36550;50.472;19.744;2023-11-21T08:54:52;97439.05;;;9.19;94.45
50302;BME280;36550;50.472;19.744;2023-11-21T08:57:41;97440.39;;;9.32;94.32
50302;BME280;36550;50.472;19.744;2023-11-21T09:00:27;97436.90;;;9.40;94.20
50302;BME280;36550;50.472;19.744;2023-11-21T09:03:11;97442.36;;;9.49;94.07
50302;BME280;36550;50.472;19.744;2023-11-21T09:05:56;97435.84;;;9.56;94.02
50302;BME280;36550;50.472;19.744;2023-11-21T09:08:40;97438.40;;;9.63;94.11
50302;BME280;36550;50.472;19.744;2023-11-21T09:11:24;97441.54;;;9.70;93.62
50302;BME280;36550;50.472;19.744;2023-11-21T09:14:10;97443.95;;;9.79;93.69
50302;BME280;36550;50.472;19.744;2023-11-21T09:16:57;97439.02;;;9.87;93.40
50302;BME280;36550;50.472;19.744;2023-11-21T09:19:41;97440.11;;;9.93;93.21
50302;BME280;36550;50.472;19.744;2023-11-21T09:22:25;97442.41;;;9.99;93.18
50302;BME280;36550;50.472;19.744;2023-11-21T09:25:10;97442.31;;;10.02;92.91
50302;BME280;36550;50.472;19.744;2023-11-21T09:27:54;97441.89;;;10.03;92.56
50302;BME280;36550;50.472;19.744;2023-11-21T09:30:40;97442.91;;;10.05;92.36
50302;BME280;36550;50.472;19.744;2023-11-21T09:33:24;97443.43;;;10.04;92.27
50302;BME280;36550;50.472;19.744;2023-11-21T09:36:12;97442.07;;;10.04;92.16
50302;BME280;36550;50.472;19.744;2023-11-21T09:39:00;97440.50;;;10.04;92.07
50302;BME280;36550;50.472;19.744;2023-11-21T09:41:50;97444.27;;;10.00;91.86
50302;BME280;36550;50.472;19.744;2023-11-21T09:44:41;97441.16;;;9.98;91.81
50302;BME280;36550;50.472;19.744;2023-11-21T09:47:29;97441.67;;;9.93;91.61
50302;BME280;36550;50.472;19.744;2023-11-21T09:50:17;97440.71;;;9.92;91.15
50302;BME280;36550;50.472;19.744;2023-11-21T09:55:50;97441.43;;;9.99;91.65
50302;BME280;36550;50.472;19.744;2023-11-21T09:58:35;97439.25;;;10.01;91.52
50302;BME280;36550;50.472;19.744;2023-11-21T10:01:20;97437.79;;;10.06;91.40
50302;BME280;36550;50.472;19.744;2023-11-21T10:04:05;97439.58;;;10.11;91.51
50302;BME280;36550;50.472;19.744;2023-11-21T10:06:55;97438.14;;;10.14;91.73
50302;BME280;36550;50.472;19.744;2023-11-21T10:09:40;97442.46;;;10.17;91.61
50302;BME280;36550;50.472;19.744;2023-11-21T10:12:26;97439.92;;;10.18;91.37
50302;BME280;36550;50.472;19.744;2023-11-21T10:15:10;97439.16;;;10.21;91.09
50302;BME280;36550;50.472;19.744;2023-11-21T10:17:57;97442.98;;;10.26;90.47
50302;BME280;36550;50.472;19.744;2023-11-21T10:20:42;97448.41;;;10.28;90.54
50302;BME280;36550;50.472;19.744;2023-11-21T10:23:27;97452.73;;;10.26;90.22
50302;BME280;36550;50.472;19.744;2023-11-21T10:26:12;97450.42;;;10.25;90.18
50302;BME280;36550;50.472;19.744;2023-11-21T10:29:01;97453.41;;;10.24;90.22
50302;BME280;36550;50.472;19.744;2023-11-21T10:31:50;97453.14;;;10.31;90.34
50302;BME280;36550;50.472;19.744;2023-11-21T10:34:35;97452.15;;;10.41;90.07
50302;BME280;36550;50.472;19.744;2023-11-21T10:37:19;97451.30;;;10.45;89.82
50302;BME280;36550;50.472;19.744;2023-11-21T10:40:04;97448.02;;;10.47;89.57
50302;BME280;36550;50.472;19.744;2023-11-21T10:42:48;97445.12;;;10.51;89.55
50302;BME280;36550;50.472;19.744;2023-11-21T10:45:33;97442.56;;;10.58;89.63
50302;BME280;36550;50.472;19.744;2023-11-21T10:48:17;97443.47;;;10.66;89.77
50302;BME280;36550;50.472;19.744;2023-11-21T10:51:06;97444.71;;;10.74;89.39
50302;BME280;36550;50.472;19.744;2023-11-21T10:53:52;97444.57;;;10.83;88.96
50302;BME280;36550;50.472;19.744;2023-11-21T10:56:36;97443.89;;;10.90;88.98
50302;BME280;36550;50.472;19.744;2023-11-21T10:59:28;97448.00;;;10.98;88.76
50302;BME280;36550;50.472;19.744;2023-11-21T11:02:23;97446.86;;;11.00;88.13
50302;BME280;36550;50.472;19.744;2023-11-21T11:05:09;97442.95;;;11.04;88.26
50302;BME280;36550;50.472;19.744;2023-11-21T11:08:05;97448.67;;;11.10;88.28
50302;BME280;36550;50.472;19.744;2023-11-21T11:10:51;97443.83;;;11.15;88.09
50302;BME280;36550;50.472;19.744;2023-11-21T11:13:43;97442.16;;;11.17;88.05
50302;BME280;36550;50.472;19.744;2023-11-21T11:16:41;97442.71;;;11.23;88.17
50302;BME280;36550;50.472;19.744;2023-11-21T11:19:26;97442.59;;;11.26;87.77
50302;BME280;36550;50.472;19.744;2023-11-21T11:22:37;97439.36;;;11.24;87.64
50302;BME280;36550;50.472;19.744;2023-11-21T11:34:59;97442.74;;;11.11;87.17
50302;BME280;36550;50.472;19.744;2023-11-21T11:37:45;97447.83;;;11.02;86.55
50302;BME280;36550;50.472;19.744;2023-11-21T11:40:45;97451.28;;;10.95;86.56
50302;BME280;36550;50.472;19.744;2023-11-21T11:43:31;97449.89;;;10.92;86.64
50302;BME280;36550;50.472;19.744;2023-11-21T11:46:16;97452.31;;;10.92;86.95
50302;BME280;36550;50.472;19.744;2023-11-21T11:49:04;97453.79;;;10.93;87.02
50302;BME280;36550;50.472;19.744;2023-11-21T11:51:48;97453.38;;;10.87;86.67
50302;BME280;36550;50.472;19.744;2023-11-21T11:54:36;97455.85;;;10.82;86.43
50302;BME280;36550;50.472;19.744;2023-11-21T11:57:24;97456.52;;;10.75;86.20
50302;BME280;36550;50.472;19.744;2023-11-21T12:00:15;97457.40;;;10.68;85.99
50302;BME280;36550;50.472;19.744;2023-11-21T12:03:01;97458.69;;;10.66;86.11
50302;BME280;36550;50.472;19.744;2023-11-21T12:05:47;97459.64;;;10.70;86.54
50302;BME280;36550;50.472;19.744;2023-11-21T12:08:32;97463.36;;;10.78;86.69
50302;BME280;36550;50.472;19.744;2023-11-21T12:11:18;97465.45;;;10.82;86.85
50302;BME280;36550;50.472;19.744;2023-11-21T12:14:03;97463.61;;;10.82;86.78
50302;BME280;36550;50.472;19.744;2023-11-21T12:16:50;97465.52;;;10.76;86.48
50302;BME280;36550;50.472;19.744;2023-11-21T12:19:35;97467.11;;;10.69;86.53
50302;BME280;36550;50.472;19.744;2023-11-21T12:22:20;97467.89;;;10.62;86.33
50302;BME280;36550;50.472;19.744;2023-11-21T12:25:05;97467.20;;;10.56;86.45
50302;BME280;36550;50.472;19.744;2023-11-21T12:27:52;97467.23;;;10.54;86.43
50302;BME280;36550;50.472;19.744;2023-11-21T12:30:36;97471.89;;;10.53;86.28
50302;BME280;36550;50.472;19.744;2023-11-21T12:33:22;97471.69;;;10.53;86.36
50302;BME280;36550;50.472;19.744;2023-11-21T12:36:06;97472.67;;;10.58;86.54
50302;BME280;36550;50.472;19.744;2023-11-21T12:38:54;97472.37;;;10.64;86.93
50302;BME280;36550;50.472;19.744;2023-11-21T12:41:38;97472.83;;;10.67;86.91
50302;BME280;36550;50.472;19.744;2023-11-21T12:44:23;97473.49;;;10.66;86.72
50302;BME280;36550;50.472;19.744;2023-11-21T12:47:07;97473.55;;;10.61;86.56
50302;BME280;36550;50.472;19.744;2023-11-21T12:49:52;97481.35;;;10.54;86.43
50302;BME280;36550;50.472;19.744;2023-11-21T12:52:37;97482.27;;;10.45;86.37
50302;BME280;36550;50.472;19.744;2023-11-21T12:55:23;97484.69;;;10.33;86.09
50302;BME280;36550;50.472;19.744;2023-11-21T12:58:09;97482.87;;;10.24;86.15
50302;BME280;36550;50.472;19.744;2023-11-21T13:00:53;97486.56;;;10.16;86.36
50302;BME280;36550;50.472;19.744;2023-11-21T13:03:38;97492.48;;;10.07;86.39
50302;BME280;36550;50.472;19.744;2023-11-21T13:06:24;97490.34;;;9.98;86.46
50302;BME280;36550;50.472;19.744;2023-11-21T13:09:10;97491.69;;;9.90;86.57
50302;BME280;36550;50.472;19.744;2023-11-21T13:12:04;97499.17;;;9.86;86.76
50302;BME280;36550;50.472;19.744;2023-11-21T13:14:52;97501.42;;;9.83;86.70
50302;BME280;36550;50.472;19.744;2023-11-21T13:17:37;97500.27;;;9.80;86.74
50302;BME280;36550;50.472;19.744;2023-11-21T13:20:21;97504.26;;;9.77;86.96
50302;BME280;36550;50.472;19.744;2023-11-21T13:23:10;97507.38;;;9.79;87.14
50302;BME280;36550;50.472;19.744;2023-11-21T13:26:01;97506.14;;;9.77;87.02
50302;BME280;36550;50.472;19.744;2023-11-21T13:28:48;97511.40;;;9.71;86.89
50302;BME280;36550;50.472;19.744;2023-11-21T13:31:32;97514.80;;;9.69;87.17
50302;BME280;36550;50.472;19.744;2023-11-21T13:34:20;97515.68;;;9.71;87.18
50302;BME280;36550;50.472;19.744;2023-11-21T13:37:06;97517.10;;;9.69;87.26
50302;BME280;36550;50.472;19.744;2023-11-21T13:39:51;97514.60;;;9.67;87.25
50302;BME280;36550;50.472;19.744;2023-11-21T13:42:36;97516.98;;;9.66;87.58
50302;BME280;36550;50.472;19.744;2023-11-21T13:45:21;97517.64;;;9.63;87.70
50302;BME280;36550;50.472;19.744;2023-11-21T13:48:07;97520.27;;;9.61;87.74
50302;BME280;36550;50.472;19.744;2023-11-21T13:50:53;97518.23;;;9.61;87.76
50302;BME280;36550;50.472;19.744;2023-11-21T13:53:47;97521.36;;;9.60;87.83
50302;BME280;36550;50.472;19.744;2023-11-21T13:56:34;97521.91;;;9.58;87.88
50302;BME280;36550;50.472;19.744;2023-11-21T13:59:18;97525.50;;;9.57;87.82
50302;BME280;36550;50.472;19.744;2023-11-21T14:02:09;97526.30;;;9.54;87.72
50302;BME280;36550;50.472;19.744;2023-11-21T14:05:02;97529.59;;;9.53;87.80
50302;BME280;36550;50.472;19.744;2023-11-21T14:07:54;97529.36;;;9.52;87.86
50302;BME280;36550;50.472;19.744;2023-11-21T14:10:39;97532.45;;;9.51;87.82
50302;BME280;36550;50.472;19.744;2023-11-21T14:13:34;97531.44;;;9.50;87.92
50302;BME280;36550;50.472;19.744;2023-11-21T14:16:19;97534.08;;;9.49;87.94
50302;BME280;36550;50.472;19.744;2023-11-21T14:19:06;97539.86;;;9.47;87.97
50302;BME280;36550;50.472;19.744;2023-11-21T14:22:01;97545.43;;;9.37;87.65
50302;BME280;36550;50.472;19.744;2023-11-21T14:24:45;97546.46;;;9.30;87.61
50302;BME280;36550;50.472;19.744;2023-11-21T14:27:33;97549.56;;;9.24;87.70
50302;BME280;36550;50.472;19.744;2023-11-21T14:30:17;97549.91;;;9.19;87.83
50302;BME280;36550;50.472;19.744;2023-11-21T14:33:03;97552.50;;;9.15;87.78
50302;BME280;36550;50.472;19.744;2023-11-21T14:35:48;97558.01;;;9.12;88.00
50302;BME280;36550;50.472;19.744;2023-11-21T14:38:32;97556.15;;;9.05;87.81
50302;BME280;36550;50.472;19.744;2023-11-21T14:41:16;97557.35;;;8.98;87.83
50302;BME280;36550;50.472;19.744;2023-11-21T14:44:02;97564.54;;;8.94;87.93
50302;BME280;36550;50.472;19.744;2023-11-21T14:46:52;97561.30;;;8.89;87.95